Time;durP1;ratioP1;P1;durP2;ratioP2;P2;SDS_P1;SDS_P2;PMS_P1;PMS_P2;Temp;Humidity;BMP_temperature;BMP_pressure;BME280_temperature;BME280_humidity;BME280_pressure;Samples;Min_cycle;Max_cycle;Signal;HPM_P1;HPM_P2
2022/05/18 00:00:05;;;;;;;;;;;;;;;;;;5020712;28;19925;-81
2022/05/18 00:02:34;;;;;;;;;;;;;;;;;;5040923;28;19929;-80
2022/05/18 00:05:01;;;;;;;;;;;;;;;;;;5024222;28;19939;-80
2022/05/18 00:07:26;;;;;;;;;;;;;;;;;;5040941;28;19921;-80
2022/05/18 00:09:52;;;;;;;;;;;;;;;;;;5025296;28;20012;-81
2022/05/18 00:12:18;;;;;;;;;;;;;;;;;;5025922;28;19966;-82
2022/05/18 00:14:44;;;;;;;;;;;;;;;;;;5024644;28;19969;-80
2022/05/18 00:17:10;;;;;;;;;;;;;;;;;;5025068;28;19917;-80
2022/05/18 00:19:36;;;;;;;;;;;;;;;;;;5023744;28;19982;-80
2022/05/18 00:22:02;;;;;;;;;;;;;;;;;;5023613;28;19924;-81
2022/05/18 00:24:27;;;;;;;;;;;;;;;;;;5041027;28;19921;-80
2022/05/18 00:26:52;;;;;;;;;;;;;;;;;;5040359;28;19975;-80
2022/05/18 00:29:18;;;;;;;;;;;;;;;;;;5022564;28;19921;-80
2022/05/18 00:31:46;;;;;;;;;;;;;;;;;;5022313;28;19966;-80
2022/05/18 00:34:12;;;;;;;;;;;;;;;;;;5021894;28;19917;-80
2022/05/18 00:36:37;;;;;;;;;;;;;;;;;;5022707;28;19939;-80
2022/05/18 00:39:03;;;;;;;;;;;;;;;;;;5038564;28;20378;-80
2022/05/18 00:41:29;;;;;;;;;;;;;;;;;;5022945;28;20331;-80
2022/05/18 00:43:55;;;;;;;;;;;;;;;;;;5019574;28;20371;-80
2022/05/18 00:46:21;;;;;;;;;;;;;;;;;;5017832;28;19917;-80
2022/05/18 00:48:47;;;;;;;;;;;;;;;;;;5016259;28;19921;-80
2022/05/18 00:51:16;;;;;;;;;;;;;;;;;;5016959;28;20016;-80
2022/05/18 00:53:44;;;;;;;;;;;;;;;;;;5018653;28;19921;-80
2022/05/18 00:56:12;;;;;;;;;;;;;;;;;;5017681;28;19922;-81
2022/05/18 00:58:40;;;;;;;;;;;;;;;;;;5018302;28;19940;-80
2022/05/18 01:01:07;;;;;;;;;;;;;;;;;;5002846;28;20331;-80
2022/05/18 01:03:35;;;;;;;;;;;;;;;;;;5023771;28;19969;-80
2022/05/18 01:06:12;;;;;;;;;;;;;;;;;;5022200;28;20020;-80
2022/05/18 01:08:40;;;;;;;;;;;;;;;;;;5020489;28;19924;-81
2022/05/18 01:11:06;;;;;;;;;;;;;;;;;;4986489;28;20019;-80
2022/05/18 01:13:31;;;;;;;;;;;;;;;;;;5002627;28;19994;-81
2022/05/18 01:15:56;;;;;;;;;;;;;;;;;;5002150;28;19940;-80
2022/05/18 01:18:22;;;;;;;;;;;;;;;;;;5002103;28;19929;-80
2022/05/18 01:20:48;;;;;;;;;;;;;;;;;;5003852;28;19923;-80
2022/05/18 01:23:29;;;;;;;;;;;;;;;;;;5022101;28;19921;-80
2022/05/18 01:26:10;;;;;;;;;;;;;;;;;;5005729;28;19972;-80
2022/05/18 01:28:37;;;;;;;;;;;;;;;;;;5005786;28;19937;-80
2022/05/18 01:31:04;;;;;;;;;;;;;;;;;;5021221;28;19917;-80
2022/05/18 01:33:31;;;;;;;;;;;;;;;;;;5006229;28;19925;-80
2022/05/18 01:35:56;;;;;;;;;;;;;;;;;;5021630;28;19972;-80
2022/05/18 01:38:21;;;;;;;;;;;;;;;;;;4989169;28;19917;-81
2022/05/18 01:40:47;;;;;;;;;;;;;;;;;;5004123;28;19918;-80
2022/05/18 01:43:15;;;;;;;;;;;;;;;;;;4988910;28;20000;-80
2022/05/18 01:45:41;;;;;;;;;;;;;;;;;;5004995;28;19944;-80
2022/05/18 01:48:08;;;;;;;;;;;;;;;;;;5004848;28;19918;-80
2022/05/18 01:50:33;;;;;;;;;;;;;;;;;;5005259;28;19913;-80
2022/05/18 01:52:59;;;;;;;;;;;;;;;;;;5008602;28;19926;-80
2022/05/18 01:55:24;;;;;;;;;;;;;;;;;;5012151;28;20000;-80
2022/05/18 01:57:49;;;;;;;;;;;;;;;;;;5003262;28;19921;-80
2022/05/18 02:00:17;;;;;;;;;;;;;;;;;;5019374;28;19918;-80
2022/05/18 02:02:43;;;;;;;;;;;;;;;;;;5002136;28;19968;-80
2022/05/18 02:05:09;;;;;;;;;;;;;;;;;;5018666;28;20307;-81
2022/05/18 02:07:34;;;;;;;;;;;;;;;;;;5012171;28;19917;-78
2022/05/18 02:10:00;;;;;;;;;;;;;;;;;;5005700;28;19968;-78
2022/05/18 02:12:26;;;;;;;;;;;;;;;;;;4991064;28;19991;-78
2022/05/18 02:14:51;;;;;;;;;;;;;;;;;;4996886;28;20268;-79
2022/05/18 02:17:16;;;;;;;;;;;;;;;;;;4980774;28;19928;-79
2022/05/18 02:19:42;;;;;;;;;;;;;;;;;;4992210;28;19918;-79
2022/05/18 02:22:07;;;;;;;;;;;;;;;;;;5012556;28;20368;-80
2022/05/18 02:24:32;;;;;;;;;;;;;;;;;;5007526;28;20371;-78
2022/05/18 02:26:58;;;;;;;;;;;;;;;;;;4997246;28;19933;-79
2022/05/18 02:29:23;;;;;;;;;;;;;;;;;;5005410;28;19925;-79
2022/05/18 02:31:49;;;;;;;;;;;;;;;;;;4999945;28;20012;-79
2022/05/18 02:34:14;;;;;;;;;;;;;;;;;;4995854;28;19925;-79
2022/05/18 02:36:42;;;;;;;;;;;;;;;;;;4991433;28;19918;-78
2022/05/18 02:39:07;;;;;;;;;;;;;;;;;;4995661;28;20386;-79
2022/05/18 02:41:33;;;;;;;;;;;;;;;;;;4990269;28;19918;-79
2022/05/18 02:43:59;;;;;;;;;;;;;;;;;;4999721;28;20439;-79
2022/05/18 02:46:25;;;;;;;;;;;;;;;;;;4993110;28;19956;-80
2022/05/18 02:48:52;;;;;;;;;;;;;;;;;;5000542;28;19924;-80
2022/05/18 02:51:18;;;;;;;;;;;;;;;;;;5007797;28;19917;-78
2022/05/18 02:53:44;;;;;;;;;;;;;;;;;;5014195;28;20004;-78
2022/05/18 02:56:11;;;;;;;;;;;;;;;;;;4997660;28;20375;-78
2022/05/18 02:58:42;;;;;;;;;;;;;;;;;;4999765;28;19924;-78
2022/05/18 03:01:12;;;;;;;;;;;;;;;;;;5017176;28;19967;-78
2022/05/18 03:03:38;;;;;;;;;;;;;;;;;;5033108;28;20322;-78
2022/05/18 03:06:07;;;;;;;;;;;;;;;;;;5038229;28;19917;-78
2022/05/18 03:08:34;;;;;;;;;;;;;;;;;;5015912;28;19917;-78
2022/05/18 03:11:00;;;;;;;;;;;;;;;;;;5021233;28;19921;-78
2022/05/18 03:13:25;;;;;;;;;;;;;;;;;;5013802;28;20433;-78
2022/05/18 03:15:51;;;;;;;;;;;;;;;;;;5004223;28;20034;-78
2022/05/18 03:18:16;;;;;;;;;;;;;;;;;;5010468;28;19925;-78
2022/05/18 03:23:36;;;;;;;;;;;;;;;;;;5018700;28;19921;-78
2022/05/18 03:26:09;;;;;;;;;;;;;;;;;;5019793;28;20354;-78
2022/05/18 03:28:35;;;;;;;;;;;;;;;;;;5030097;28;19968;-78
2022/05/18 03:31:00;;;;;;;;;;;;;;;;;;5019518;28;19967;-78
2022/05/18 03:33:26;;;;;;;;;;;;;;;;;;5011145;28;19987;-78
2022/05/18 03:35:52;;;;;;;;;;;;;;;;;;5001568;28;20287;-78
2022/05/18 03:38:18;;;;;;;;;;;;;;;;;;4994096;28;19925;-78
2022/05/18 03:40:44;;;;;;;;;;;;;;;;;;5018621;28;20363;-78
2022/05/18 03:43:09;;;;;;;;;;;;;;;;;;5002194;28;19922;-78
2022/05/18 03:45:35;;;;;;;;;;;;;;;;;;5014371;28;19976;-80
2022/05/18 03:48:01;;;;;;;;;;;;;;;;;;5020692;28;19917;-80
2022/05/18 03:50:28;;;;;;;;;;;;;;;;;;4998058;28;19940;-81
2022/05/18 03:52:57;;;;;;;;;;;;;;;;;;5021567;28;20298;-81
2022/05/18 03:55:23;;;;;;;;;;;;;;;;;;5040733;28;19917;-80
2022/05/18 03:57:48;;;;;;;;;;;;;;;;;;5023601;28;19984;-80
2022/05/18 04:00:14;;;;;;;;;;;;;;;;;;5021871;28;19948;-80
2022/05/18 04:02:40;;;;;;;;;;;;;;;;;;5004325;28;19929;-80
2022/05/18 04:05:07;;;;;;;;;;;;;;;;;;4988114;28;20017;-80
2022/05/18 04:07:32;;;;;;;;;;;;;;;;;;4987434;28;19918;-81
2022/05/18 04:09:58;;;;;;;;;;;;;;;;;;5003631;28;19924;-80
2022/05/18 04:12:23;;;;;;;;;;;;;;;;;;4986195;28;20367;-81
2022/05/18 04:14:50;;;;;;;;;;;;;;;;;;4985692;28;20044;-80
2022/05/18 04:17:16;;;;;;;;;;;;;;;;;;4986033;28;19917;-80
2022/05/18 04:19:41;;;;;;;;;;;;;;;;;;5003692;28;20264;-80
2022/05/18 04:22:07;;;;;;;;;;;;;;;;;;5004151;28;19917;-80
2022/05/18 04:24:32;;;;;;;;;;;;;;;;;;5002985;28;19921;-80
2022/05/18 04:26:58;;;;;;;;;;;;;;;;;;4986310;28;19928;-80
2022/05/18 04:29:23;;;;;;;;;;;;;;;;;;5002019;28;19968;-80
2022/05/18 04:31:49;;;;;;;;;;;;;;;;;;4986254;28;19922;-80
2022/05/18 04:34:16;;;;;;;;;;;;;;;;;;5035177;28;20051;-80
2022/05/18 04:36:43;;;;;;;;;;;;;;;;;;5038194;28;19971;-80
2022/05/18 04:39:08;;;;;;;;;;;;;;;;;;5020734;28;19924;-80
2022/05/18 04:41:33;;;;;;;;;;;;;;;;;;5038607;28;19917;-80
2022/05/18 04:43:59;;;;;;;;;;;;;;;;;;5003408;28;19924;-80
2022/05/18 04:46:25;;;;;;;;;;;;;;;;;;5020635;28;19917;-80
2022/05/18 04:48:50;;;;;;;;;;;;;;;;;;5020529;28;19944;-80
2022/05/18 04:51:16;;;;;;;;;;;;;;;;;;5019787;28;19921;-80
2022/05/18 04:53:41;;;;;;;;;;;;;;;;;;5033343;28;19971;-80
2022/05/18 04:56:07;;;;;;;;;;;;;;;;;;4983272;28;19971;-80
2022/05/18 04:58:33;;;;;;;;;;;;;;;;;;5016380;28;19917;-80
2022/05/18 05:01:00;;;;;;;;;;;;;;;;;;4999693;28;19921;-81
2022/05/18 05:03:25;;;;;;;;;;;;;;;;;;4975697;28;20290;-81
2022/05/18 05:05:51;;;;;;;;;;;;;;;;;;4996940;28;20407;-80
2022/05/18 05:08:16;;;;;;;;;;;;;;;;;;4963526;28;20005;-80
2022/05/18 05:10:41;;;;;;;;;;;;;;;;;;4995913;28;19918;-81
2022/05/18 05:13:06;;;;;;;;;;;;;;;;;;4981524;28;19917;-80
2022/05/18 05:15:32;;;;;;;;;;;;;;;;;;4981822;28;20012;-81
2022/05/18 05:17:57;;;;;;;;;;;;;;;;;;4966023;28;19996;-81
2022/05/18 05:20:23;;;;;;;;;;;;;;;;;;4965561;28;19918;-80
2022/05/18 05:22:49;;;;;;;;;;;;;;;;;;4964885;28;20029;-80
2022/05/18 05:25:15;;;;;;;;;;;;;;;;;;4964453;28;19972;-80
2022/05/18 05:27:41;;;;;;;;;;;;;;;;;;4980926;28;20360;-80
2022/05/18 05:30:07;;;;;;;;;;;;;;;;;;4964951;28;19918;-81
2022/05/18 05:32:33;;;;;;;;;;;;;;;;;;4965426;28;19917;-81
2022/05/18 05:34:58;;;;;;;;;;;;;;;;;;4981932;28;20016;-81
2022/05/18 05:37:24;;;;;;;;;;;;;;;;;;4966298;28;19922;-78
2022/05/18 05:39:49;;;;;;;;;;;;;;;;;;4986045;28;20397;-78
2022/05/18 05:42:15;;;;;;;;;;;;;;;;;;5017005;28;20342;-78
2022/05/18 05:44:40;;;;;;;;;;;;;;;;;;5000832;28;20018;-79
2022/05/18 05:47:05;;;;;;;;;;;;;;;;;;5017247;28;19917;-78
2022/05/18 05:49:34;;;;;;;;;;;;;;;;;;4999966;28;19918;-80
2022/05/18 05:51:59;;;;;;;;;;;;;;;;;;4985619;28;19921;-78
2022/05/18 05:54:26;;;;;;;;;;;;;;;;;;5031662;28;20028;-82
2022/05/18 05:56:52;;;;;;;;;;;;;;;;;;5003919;28;20297;-83
2022/05/18 05:59:19;;;;;;;;;;;;;;;;;;5006512;28;20355;-82
2022/05/18 06:01:45;;;;;;;;;;;;;;;;;;5008458;28;19971;-81
2022/05/18 06:04:11;;;;;;;;;;;;;;;;;;5025604;28;19922;-83
2022/05/18 06:06:37;;;;;;;;;;;;;;;;;;5005826;28;19917;-82
2022/05/18 06:09:03;;;;;;;;;;;;;;;;;;5006057;28;19932;-84
2022/05/18 06:11:28;;;;;;;;;;;;;;;;;;5007324;28;20375;-82
2022/05/18 06:13:54;;;;;;;;;;;;;;;;;;5005097;28;19976;-81
2022/05/18 06:16:21;;;;;;;;;;;;;;;;;;5003297;28;19936;-81
2022/05/18 06:18:46;;;;;;;;;;;;;;;;;;5022130;28;19940;-81
2022/05/18 06:21:11;;;;;;;;;;;;;;;;;;5006772;28;19918;-80
2022/05/18 06:23:37;;;;;;;;;;;;;;;;;;5004561;28;19943;-79
2022/05/18 06:26:03;;;;;;;;;;;;;;;;;;5002347;28;20007;-78
2022/05/18 06:28:28;;;;;;;;;;;;;;;;;;5000819;28;20286;-77
2022/05/18 06:30:54;;;;;;;;;;;;;;;;;;5000073;28;19996;-77
2022/05/18 06:33:19;;;;;;;;;;;;;;;;;;5006715;28;19922;-79
2022/05/18 06:35:47;;;;;;;;;;;;;;;;;;4999226;28;19923;-79
2022/05/18 06:38:13;;;;;;;;;;;;;;;;;;5018913;28;19917;-78
2022/05/18 06:43:23;;;;;;;;;;;;;;;;;;5018031;28;19921;-81
2022/05/18 06:45:48;;;;;;;;;;;;;;;;;;5023488;28;20267;-80
2022/05/18 06:48:14;;;;;;;;;;;;;;;;;;5025027;28;19917;-80
2022/05/18 06:50:39;;;;;;;;;;;;;;;;;;5025557;28;19922;-81
2022/05/18 06:53:05;;;;;;;;;;;;;;;;;;4999620;28;19972;-81
2022/05/18 06:55:31;;;;;;;;;;;;;;;;;;5025844;28;19917;-81
2022/05/18 06:57:56;;;;;;;;;;;;;;;;;;5026006;28;20016;-81
2022/05/18 07:00:22;;;;;;;;;;;;;;;;;;5025561;28;19914;-81
2022/05/18 07:02:49;;;;;;;;;;;;;;;;;;5025954;28;19921;-81
2022/05/18 07:05:14;;;;;;;;;;;;;;;;;;5027386;28;19973;-81
2022/05/18 07:07:40;;;;;;;;;;;;;;;;;;5026570;28;19917;-81
2022/05/18 07:10:07;;;;;;;;;;;;;;;;;;5010327;28;19917;-81
2022/05/18 07:12:34;;;;;;;;;;;;;;;;;;5004860;28;19932;-84
2022/05/18 07:15:00;;;;;;;;;;;;;;;;;;5007786;28;19918;-85
2022/05/18 07:17:26;;;;;;;;;;;;;;;;;;5008942;28;19980;-86
2022/05/18 07:19:51;;;;;;;;;;;;;;;;;;5020912;28;19918;-85
2022/05/18 07:22:20;;;;;;;;;;;;;;;;;;5005059;28;19922;-85
2022/05/18 07:24:46;;;;;;;;;;;;;;;;;;5020662;28;19929;-85
2022/05/18 07:27:11;;;;;;;;;;;;;;;;;;5022180;28;19917;-85
2022/05/18 07:29:37;;;;;;;;;;;;;;;;;;5022103;28;19964;-84
2022/05/18 07:32:12;;;;;;;;;;;;;;;;;;5020990;28;20290;-84
2022/05/18 07:34:37;;;;;;;;;;;;;;;;;;5005372;28;19917;-86
2022/05/18 07:37:04;;;;;;;;;;;;;;;;;;5020853;28;20645;-86
2022/05/18 07:39:30;;;;;;;;;;;;;;;;;;5000795;28;19945;-87
2022/05/18 07:41:58;;;;;;;;;;;;;;;;;;5017010;28;19918;-86
2022/05/18 07:44:24;;;;;;;;;;;;;;;;;;5002771;28;19971;-85
2022/05/18 07:46:50;;;;;;;;;;;;;;;;;;4999796;28;20006;-85
2022/05/18 07:49:16;;;;;;;;;;;;;;;;;;5018373;28;19940;-85
2022/05/18 07:51:43;;;;;;;;;;;;;;;;;;5020703;28;19917;-87
2022/05/18 07:54:09;;;;;;;;;;;;;;;;;;5024071;28;19980;-82
2022/05/18 07:56:35;;;;;;;;;;;;;;;;;;5007712;28;19956;-83
2022/05/18 07:59:00;;;;;;;;;;;;;;;;;;5024533;28;19924;-81
2022/05/18 08:01:33;;;;;;;;;;;;;;;;;;5020910;28;19941;-86
2022/05/18 08:03:59;;;;;;;;;;;;;;;;;;5004486;28;19952;-85
2022/05/18 08:06:27;;;;;;;;;;;;;;;;;;5022815;28;19968;-85
2022/05/18 08:08:54;;;;;;;;;;;;;;;;;;5009277;28;19917;-84
2022/05/18 08:16:48;;;;;;;;;;;;;;;;;;5042297;28;19960;-83
2022/05/18 08:19:14;;;;;;;;;;;;;;;;;;5024685;28;19917;-82
2022/05/18 08:21:41;;;;;;;;;;;;;;;;;;5027423;28;19943;-85
2022/05/18 08:24:06;;;;;;;;;;;;;;;;;;5025844;28;19921;-83
2022/05/18 08:26:32;;;;;;;;;;;;;;;;;;5025968;28;19917;-82
2022/05/18 08:29:01;;;;;;;;;;;;;;;;;;5044002;28;19964;-83
2022/05/18 08:31:30;;;;;;;;;;;;;;;;;;5037275;28;19957;-84
2022/05/18 08:33:58;;;;;;;;;;;;;;;;;;5001717;28;19924;-84
2022/05/18 08:36:26;;;;;;;;;;;;;;;;;;5018595;28;20375;-84
2022/05/18 08:38:55;;;;;;;;;;;;;;;;;;5002247;28;19980;-85
2022/05/18 08:41:45;;;;;;;;;;;;;;;;;;5001182;28;19917;-84
2022/05/18 08:44:21;;;;;;;;;;;;;;;;;;5011803;28;19925;-84
2022/05/18 08:47:07;;;;;;;;;;;;;;;;;;5000231;28;19928;-84
2022/05/18 08:49:32;;;;;;;;;;;;;;;;;;5033247;28;20374;-84
2022/05/18 08:52:12;;;;;;;;;;;;;;;;;;5000466;28;20383;-84
2022/05/18 08:54:43;;;;;;;;;;;;;;;;;;5011513;28;20303;-84
2022/05/18 08:57:28;;;;;;;;;;;;;;;;;;4984633;28;19925;-85
2022/05/18 08:59:59;;;;;;;;;;;;;;;;;;5016639;28;19918;-84
2022/05/18 09:02:36;;;;;;;;;;;;;;;;;;5000925;28;20401;-84
2022/05/18 09:05:03;;;;;;;;;;;;;;;;;;5000824;28;19996;-84
2022/05/18 09:07:33;;;;;;;;;;;;;;;;;;5000422;28;19918;-84
2022/05/18 09:10:17;;;;;;;;;;;;;;;;;;5000860;28;19918;-84
2022/05/18 09:12:47;;;;;;;;;;;;;;;;;;5000872;28;19949;-85
2022/05/18 09:15:15;;;;;;;;;;;;;;;;;;5000698;28;19924;-84
2022/05/18 09:17:53;;;;;;;;;;;;;;;;;;5001191;28;19961;-84
2022/05/18 09:20:36;;;;;;;;;;;;;;;;;;4984943;28;19921;-84
2022/05/18 09:23:21;;;;;;;;;;;;;;;;;;5000619;28;19953;-84
2022/05/18 09:26:05;;;;;;;;;;;;;;;;;;5018802;28;19923;-84
2022/05/18 09:28:39;;;;;;;;;;;;;;;;;;5000502;28;19917;-85
2022/05/18 09:31:08;;;;;;;;;;;;;;;;;;4996182;28;20012;-84
2022/05/18 09:33:49;;;;;;;;;;;;;;;;;;4965816;28;19925;-84
2022/05/18 09:36:24;;;;;;;;;;;;;;;;;;4965931;28;19917;-84
2022/05/18 09:38:56;;;;;;;;;;;;;;;;;;4982618;28;19967;-84
2022/05/18 09:41:22;;;;;;;;;;;;;;;;;;5000129;28;19947;-84
2022/05/18 09:44:00;;;;;;;;;;;;;;;;;;4982755;28;20398;-84
2022/05/18 09:46:27;;;;;;;;;;;;;;;;;;4965538;28;19924;-84
2022/05/18 09:48:55;;;;;;;;;;;;;;;;;;4965964;28;19918;-85
2022/05/18 09:51:22;;;;;;;;;;;;;;;;;;4982778;28;19918;-85
2022/05/18 09:53:49;;;;;;;;;;;;;;;;;;4981159;28;19922;-84
2022/05/18 09:56:35;;;;;;;;;;;;;;;;;;4986644;28;19953;-84
2022/05/18 09:59:03;;;;;;;;;;;;;;;;;;5001549;28;19930;-84
2022/05/18 10:07:28;;;;;;;;;;;;;;;;;;5000996;28;19925;-85
2022/05/18 10:10:00;;;;;;;;;;;;;;;;;;5000962;28;20291;-85
2022/05/18 10:12:31;;;;;;;;;;;;;;;;;;4983416;28;19917;-83
2022/05/18 10:14:58;;;;;;;;;;;;;;;;;;5002178;28;19967;-84
2022/05/18 10:17:31;;;;;;;;;;;;;;;;;;5041299;28;19921;-84
2022/05/18 10:20:05;;;;;;;;;;;;;;;;;;5024139;28;19984;-82
2022/05/18 10:22:34;;;;;;;;;;;;;;;;;;5041580;28;19917;-85
2022/05/18 10:25:05;;;;;;;;;;;;;;;;;;5026113;28;20001;-84
2022/05/18 10:27:34;;;;;;;;;;;;;;;;;;5026037;28;19921;-84
2022/05/18 10:30:08;;;;;;;;;;;;;;;;;;5042104;28;19921;-84
2022/05/18 10:32:34;;;;;;;;;;;;;;;;;;4984605;28;19944;-84
2022/05/18 10:35:02;;;;;;;;;;;;;;;;;;5000552;28;19914;-85
2022/05/18 10:37:36;;;;;;;;;;;;;;;;;;4985186;28;20052;-85
2022/05/18 10:40:08;;;;;;;;;;;;;;;;;;5002124;28;19925;-85
2022/05/18 10:42:46;;;;;;;;;;;;;;;;;;5001619;28;19987;-84
2022/05/18 10:45:20;;;;;;;;;;;;;;;;;;4985027;28;19932;-85
2022/05/18 10:47:48;;;;;;;;;;;;;;;;;;4983849;28;20363;-85
2022/05/18 10:50:25;;;;;;;;;;;;;;;;;;4983947;28;20450;-85
2022/05/18 10:53:00;;;;;;;;;;;;;;;;;;5002270;28;19973;-84
2022/05/18 10:55:26;;;;;;;;;;;;;;;;;;4984799;28;19918;-84
2022/05/18 10:57:55;;;;;;;;;;;;;;;;;;4984940;28;19940;-84
2022/05/18 11:00:23;;;;;;;;;;;;;;;;;;4970561;28;19960;-82
2022/05/18 11:03:08;;;;;;;;;;;;;;;;;;5002225;28;20275;-83
2022/05/18 11:05:43;;;;;;;;;;;;;;;;;;5002550;28;19952;-86
2022/05/18 11:08:13;;;;;;;;;;;;;;;;;;5001956;28;19917;-84
2022/05/18 11:10:48;;;;;;;;;;;;;;;;;;5002681;28;19918;-84
2022/05/18 11:13:33;;;;;;;;;;;;;;;;;;5002071;28;19952;-78
2022/05/18 11:15:58;;;;;;;;;;;;;;;;;;5018827;28;19940;-77
2022/05/18 11:18:31;;;;;;;;;;;;;;;;;;5017988;28;19918;-78
2022/05/18 11:20:57;;;;;;;;;;;;;;;;;;5002004;28;20372;-77
2022/05/18 11:23:40;;;;;;;;;;;;;;;;;;5016150;28;19967;-77
2022/05/18 11:26:24;;;;;;;;;;;;;;;;;;5014650;28;19933;-77
2022/05/18 11:29:00;;;;;;;;;;;;;;;;;;4979741;28;19918;-77
2022/05/18 11:31:25;;;;;;;;;;;;;;;;;;5008429;28;19918;-77
2022/05/18 11:33:58;;;;;;;;;;;;;;;;;;4982407;28;19917;-77
2022/05/18 11:36:53;;;;;;;;;;;;;;;;;;4995572;28;19924;-77
2022/05/18 11:39:32;;;;;;;;;;;;;;;;;;4944237;28;19918;-77
2022/05/18 11:42:21;;;;;;;;;;;;;;;;;;4996321;28;19964;-77
2022/05/18 11:45:06;;;;;;;;;;;;;;;;;;4977256;28;19976;-77
2022/05/18 11:47:45;;;;;;;;;;;;;;;;;;4962247;28;19918;-77
2022/05/18 11:50:18;;;;;;;;;;;;;;;;;;4978506;28;19941;-77
2022/05/18 11:52:43;;;;;;;;;;;;;;;;;;4996078;28;19922;-77
2022/05/18 11:55:12;;;;;;;;;;;;;;;;;;4999721;28;19928;-77
2022/05/18 11:57:45;;;;;;;;;;;;;;;;;;5009529;28;19953;-77
2022/05/18 12:00:12;;;;;;;;;;;;;;;;;;4995719;28;19925;-77
2022/05/18 12:03:10;;;;;;;;;;;;;;;;;;4999090;28;19918;-78
2022/05/18 12:05:43;;;;;;;;;;;;;;;;;;4995817;28;19925;-77
2022/05/18 12:08:25;;;;;;;;;;;;;;;;;;4996027;28;19918;-77
2022/05/18 12:10:54;;;;;;;;;;;;;;;;;;4991266;28;19917;-78
2022/05/18 12:13:20;;;;;;;;;;;;;;;;;;4998786;28;19997;-79
2022/05/18 12:15:50;;;;;;;;;;;;;;;;;;4996835;28;19956;-79
2022/05/18 12:18:29;;;;;;;;;;;;;;;;;;5018181;28;20006;-80
2022/05/18 12:20:58;;;;;;;;;;;;;;;;;;4999407;28;19926;-78
2022/05/18 12:23:28;;;;;;;;;;;;;;;;;;5017249;28;19928;-78
2022/05/18 12:25:54;;;;;;;;;;;;;;;;;;4983345;28;20012;-78
2022/05/18 12:28:19;;;;;;;;;;;;;;;;;;4999514;28;19963;-78
2022/05/18 12:30:45;;;;;;;;;;;;;;;;;;4974148;28;20331;-78
2022/05/18 12:33:11;;;;;;;;;;;;;;;;;;5012516;28;20007;-78
2022/05/18 12:35:46;;;;;;;;;;;;;;;;;;5008352;28;20340;-79
2022/05/18 12:38:20;;;;;;;;;;;;;;;;;;5013546;28;19952;-80
2022/05/18 12:40:48;;;;;;;;;;;;;;;;;;5026629;28;19971;-79
2022/05/18 12:43:26;;;;;;;;;;;;;;;;;;5014475;28;19929;-79
2022/05/18 12:45:56;;;;;;;;;;;;;;;;;;5017400;28;19918;-79
2022/05/18 12:48:30;;;;;;;;;;;;;;;;;;5017875;28;19917;-79
2022/05/18 12:51:02;;;;;;;;;;;;;;;;;;5013074;28;19918;-79
2022/05/18 12:53:33;;;;;;;;;;;;;;;;;;5010482;28;20413;-80
2022/05/18 12:56:00;;;;;;;;;;;;;;;;;;5015969;28;19948;-78
2022/05/18 12:58:36;;;;;;;;;;;;;;;;;;5017073;28;20405;-78
2022/05/18 13:01:07;;;;;;;;;;;;;;;;;;5008290;28;20005;-78
2022/05/18 13:03:43;;;;;;;;;;;;;;;;;;5006945;28;19921;-78
2022/05/18 13:06:13;;;;;;;;;;;;;;;;;;5023856;28;20333;-78
2022/05/18 13:08:39;;;;;;;;;;;;;;;;;;5030620;28;19917;-79
2022/05/18 13:11:09;;;;;;;;;;;;;;;;;;5034971;28;19959;-79
2022/05/18 13:13:54;;;;;;;;;;;;;;;;;;5030011;28;19976;-79
2022/05/18 13:16:35;;;;;;;;;;;;;;;;;;5035163;28;19928;-78
2022/05/18 13:19:00;;;;;;;;;;;;;;;;;;5035488;28;20317;-78
2022/05/18 13:21:29;;;;;;;;;;;;;;;;;;5011654;28;19959;-78
2022/05/18 13:24:01;;;;;;;;;;;;;;;;;;5034519;28;20379;-78
2022/05/18 13:26:33;;;;;;;;;;;;;;;;;;5011281;28;19917;-79
2022/05/18 13:29:03;;;;;;;;;;;;;;;;;;5018162;28;19924;-79
2022/05/18 13:31:28;;;;;;;;;;;;;;;;;;5036167;28;19921;-79
2022/05/18 13:33:56;;;;;;;;;;;;;;;;;;5024761;28;19980;-78
2022/05/18 13:36:54;;;;;;;;;;;;;;;;;;5007405;28;19917;-78
2022/05/18 13:39:25;;;;;;;;;;;;;;;;;;4982970;28;20319;-78
2022/05/18 13:41:50;;;;;;;;;;;;;;;;;;5016825;28;19927;-79
2022/05/18 13:44:16;;;;;;;;;;;;;;;;;;5008990;28;19996;-80
2022/05/18 13:46:42;;;;;;;;;;;;;;;;;;5018055;28;19917;-79
2022/05/18 13:49:13;;;;;;;;;;;;;;;;;;5000115;28;19924;-79
2022/05/18 13:51:41;;;;;;;;;;;;;;;;;;5017251;28;19917;-79
2022/05/18 13:54:22;;;;;;;;;;;;;;;;;;4982040;28;19929;-79
2022/05/18 13:56:49;;;;;;;;;;;;;;;;;;4978310;28;19921;-78
2022/05/18 13:59:18;;;;;;;;;;;;;;;;;;4960438;28;19924;-78
2022/05/18 14:01:47;;;;;;;;;;;;;;;;;;4961661;28;19918;-77
2022/05/18 14:04:22;;;;;;;;;;;;;;;;;;4969093;28;19945;-78
2022/05/18 14:06:54;;;;;;;;;;;;;;;;;;4976160;28;19925;-78
2022/05/18 14:09:21;;;;;;;;;;;;;;;;;;4976156;28;20451;-78
2022/05/18 14:11:47;;;;;;;;;;;;;;;;;;4973245;28;19914;-78
2022/05/18 14:14:12;;;;;;;;;;;;;;;;;;4975935;28;20434;-78
2022/05/18 14:16:47;;;;;;;;;;;;;;;;;;4960162;28;19921;-78
2022/05/18 14:19:17;;;;;;;;;;;;;;;;;;4975844;28;20497;-78
2022/05/18 14:21:43;;;;;;;;;;;;;;;;;;4976739;28;20009;-78
2022/05/18 14:24:12;;;;;;;;;;;;;;;;;;4978178;28;19973;-78
2022/05/18 14:26:41;;;;;;;;;;;;;;;;;;4960682;28;19917;-77
2022/05/18 14:29:08;;;;;;;;;;;;;;;;;;4976356;28;20372;-77
2022/05/18 14:31:39;;;;;;;;;;;;;;;;;;4960634;28;19922;-77
2022/05/18 14:34:08;;;;;;;;;;;;;;;;;;4976541;28;20020;-77
2022/05/18 14:36:49;;;;;;;;;;;;;;;;;;4994745;28;19942;-80
2022/05/18 14:39:14;;;;;;;;;;;;;;;;;;4979327;28;20359;-77
2022/05/18 14:41:43;;;;;;;;;;;;;;;;;;4963818;28;20391;-77
2022/05/18 14:44:08;;;;;;;;;;;;;;;;;;4993551;28;19922;-77
2022/05/18 14:46:37;;;;;;;;;;;;;;;;;;4977723;28;19925;-77
2022/05/18 14:49:05;;;;;;;;;;;;;;;;;;4978016;28;19961;-78
2022/05/18 14:51:35;;;;;;;;;;;;;;;;;;4944589;28;19918;-77
2022/05/18 14:54:04;;;;;;;;;;;;;;;;;;4960356;28;19923;-77
2022/05/18 14:56:30;;;;;;;;;;;;;;;;;;4977919;28;19918;-77
2022/05/18 14:58:58;;;;;;;;;;;;;;;;;;4960999;28;19968;-77
2022/05/18 15:01:44;;;;;;;;;;;;;;;;;;4960921;28;20419;-77
2022/05/18 15:07:19;;;;;;;;;;;;;;;;;;4962858;28;19922;-77
2022/05/18 15:09:52;;;;;;;;;;;;;;;;;;4976978;28;20253;-77
2022/05/18 15:12:19;;;;;;;;;;;;;;;;;;4961659;28;20296;-77
2022/05/18 15:14:54;;;;;;;;;;;;;;;;;;4967630;28;20410;-77
2022/05/18 15:17:21;;;;;;;;;;;;;;;;;;4996998;28;19917;-79
2022/05/18 15:20:02;;;;;;;;;;;;;;;;;;4956202;28;19925;-77
2022/05/18 15:22:32;;;;;;;;;;;;;;;;;;4953721;28;19918;-77
2022/05/18 15:24:58;;;;;;;;;;;;;;;;;;4976788;28;19922;-77
2022/05/18 15:27:31;;;;;;;;;;;;;;;;;;4977198;28;19919;-77
2022/05/18 15:30:05;;;;;;;;;;;;;;;;;;4943839;28;19926;-77
2022/05/18 15:32:33;;;;;;;;;;;;;;;;;;4943662;28;19925;-77
2022/05/18 15:35:04;;;;;;;;;;;;;;;;;;4976793;28;19925;-77
2022/05/18 15:37:30;;;;;;;;;;;;;;;;;;4988176;28;19922;-77
2022/05/18 15:39:55;;;;;;;;;;;;;;;;;;4988516;28;20402;-76
2022/05/18 15:42:25;;;;;;;;;;;;;;;;;;4950696;28;19929;-77
2022/05/18 15:44:51;;;;;;;;;;;;;;;;;;4968588;28;20013;-77
2022/05/18 15:47:20;;;;;;;;;;;;;;;;;;4975255;28;19925;-77
2022/05/18 15:49:53;;;;;;;;;;;;;;;;;;4966879;28;19918;-77
2022/05/18 15:52:18;;;;;;;;;;;;;;;;;;4994191;28;19921;-76
2022/05/18 15:54:45;;;;;;;;;;;;;;;;;;4984097;28;20029;-77
2022/05/18 15:57:12;;;;;;;;;;;;;;;;;;5015109;28;19929;-77
2022/05/18 15:59:38;;;;;;;;;;;;;;;;;;4997195;28;20341;-77
2022/05/18 16:02:04;;;;;;;;;;;;;;;;;;4992931;28;19917;-76
2022/05/18 16:04:30;;;;;;;;;;;;;;;;;;4976870;28;20441;-76
2022/05/18 16:06:55;;;;;;;;;;;;;;;;;;5004789;28;19924;-77
2022/05/18 16:09:22;;;;;;;;;;;;;;;;;;4978318;28;19939;-76
2022/05/18 16:11:50;;;;;;;;;;;;;;;;;;5015005;28;19924;-77
2022/05/18 16:14:16;;;;;;;;;;;;;;;;;;5008213;28;19917;-76
2022/05/18 16:16:41;;;;;;;;;;;;;;;;;;5001281;28;20276;-77
2022/05/18 16:19:08;;;;;;;;;;;;;;;;;;5010139;28;19914;-76
2022/05/18 16:21:34;;;;;;;;;;;;;;;;;;5015220;28;19968;-76
2022/05/18 16:24:01;;;;;;;;;;;;;;;;;;4981112;28;19932;-77
2022/05/18 16:26:31;;;;;;;;;;;;;;;;;;4980091;28;19963;-76
2022/05/18 16:28:57;;;;;;;;;;;;;;;;;;5006229;28;19921;-77
2022/05/18 16:31:23;;;;;;;;;;;;;;;;;;5011482;28;19917;-77
2022/05/18 16:33:48;;;;;;;;;;;;;;;;;;4998042;28;19925;-79
2022/05/18 16:36:13;;;;;;;;;;;;;;;;;;4965553;28;19918;-78
2022/05/18 16:38:39;;;;;;;;;;;;;;;;;;4964429;28;20020;-79
2022/05/18 16:41:04;;;;;;;;;;;;;;;;;;4997441;28;20376;-79
2022/05/18 16:43:30;;;;;;;;;;;;;;;;;;4963837;28;19957;-79
2022/05/18 16:45:56;;;;;;;;;;;;;;;;;;4963695;28;20245;-78
2022/05/18 16:48:23;;;;;;;;;;;;;;;;;;4980204;28;19918;-78
2022/05/18 16:50:49;;;;;;;;;;;;;;;;;;4997287;28;19924;-81
2022/05/18 16:53:16;;;;;;;;;;;;;;;;;;4969345;28;20235;-80
2022/05/18 16:55:41;;;;;;;;;;;;;;;;;;4968966;28;20291;-79
2022/05/18 16:58:06;;;;;;;;;;;;;;;;;;4983246;28;19972;-79
2022/05/18 17:00:32;;;;;;;;;;;;;;;;;;4991681;28;19918;-78
2022/05/18 17:02:57;;;;;;;;;;;;;;;;;;4976555;28;19918;-78
2022/05/18 17:11:09;;;;;;;;;;;;;;;;;;4976627;28;20283;-77
2022/05/18 17:13:34;;;;;;;;;;;;;;;;;;4995941;28;20032;-78
2022/05/18 17:16:01;;;;;;;;;;;;;;;;;;4994966;28;19918;-78
2022/05/18 17:18:28;;;;;;;;;;;;;;;;;;4978793;28;19921;-78
2022/05/18 17:20:54;;;;;;;;;;;;;;;;;;4994945;28;20437;-78